首页
METAR-TAF:

METAR-TAF

机场 :

柏林-泰格尔奥托·利林塔尔机场

柏林, 德国

纬度: 52-34N, 经度: 013-19E, 海拔: 37米

当前天气观测

该预报发布于17分钟前的14:20 UTC
风速17节,风向西
温度 11°C
湿度 94%
气压 1008 hPa
能見度: 3800
少量云层高于600英尺
多云层高于800英尺
小雨, 毛毛雨

METAR: EDDT 231420Z 27017KT 3800 -RADZ FEW006 BKN008 11/10 Q1008 TEMPO 27020G35KT 6000 BKN013

时间: 16:37 (14:37 UTC)

预报

该预报发布于3小时和37分钟前的11:00 UTC
预报有效从23日的 12点(UTC)到 24日的 12点(UTC)
风速15节,风向西,有时为25节阵风
能见度10公里或以上
多云层高于1500英尺
短暂存在
从 23日的 12点(UTC)到 23日的 22点(UTC)
风速20节,风向西,有时为35节阵风
多云层高于1200英尺
几率 40% :
短暂存在
从 23日的 12点(UTC)到 23日的 18点(UTC)
能見度: 4000
多云层高于800英尺
小雨, 毛毛雨

TAF: EDDT 231100Z 2312/2412 27015G25KT 9999 BKN015 TEMPO 2312/2322 27020G35KT BKN012 PROB40 TEMPO 2312/2318 4000 -RADZ BKN008

超过4000个机场的气象观测和天气预报(METAR&TAF报告)。

可查询的气象台以黄色和红色小点在地图上表示。

将鼠标移到小点上方,可查看气象台名称。

然后点击查看天气观测和预报。

如需切换地图:点击带黑十字的绿色按钮放大地图;点击带横线的绿色按钮缩小地图;或者点击绿色箭头查看邻近地区的地图。


METAR-TAF: